sensor_id;sensor_type;location;lat;lon;timestamp;P1;durP1;ratioP1;P2;durP2;ratioP2
52708;SDS011;38606;52.986;6.980;2022-08-21T00:01:03;11.65;;;4.65;;
52708;SDS011;38606;52.986;6.980;2022-08-21T00:03:34;6.90;;;4.40;;
52708;SDS011;38606;52.986;6.980;2022-08-21T00:06:00;9.35;;;4.25;;
52708;SDS011;38606;52.986;6.980;2022-08-21T00:08:26;6.88;;;4.53;;
52708;SDS011;38606;52.986;6.980;2022-08-21T00:10:51;7.32;;;4.30;;
52708;SDS011;38606;52.986;6.980;2022-08-21T00:13:17;10.70;;;4.78;;
52708;SDS011;38606;52.986;6.980;2022-08-21T00:15:45;8.35;;;4.47;;
52708;SDS011;38606;52.986;6.980;2022-08-21T00:18:11;10.02;;;4.50;;
52708;SDS011;38606;52.986;6.980;2022-08-21T00:20:39;10.55;;;4.72;;
52708;SDS011;38606;52.986;6.980;2022-08-21T00:23:05;15.50;;;5.13;;
52708;SDS011;38606;52.986;6.980;2022-08-21T00:25:31;9.43;;;4.78;;
52708;SDS011;38606;52.986;6.980;2022-08-21T00:27:57;11.18;;;4.65;;
52708;SDS011;38606;52.986;6.980;2022-08-21T00:30:24;9.05;;;4.57;;
52708;SDS011;38606;52.986;6.980;2022-08-21T00:32:51;10.35;;;4.75;;
52708;SDS011;38606;52.986;6.980;2022-08-21T00:35:20;7.85;;;4.10;;
52708;SDS011;38606;52.986;6.980;2022-08-21T00:37:48;9.65;;;4.60;;
52708;SDS011;38606;52.986;6.980;2022-08-21T00:40:17;13.18;;;4.78;;
52708;SDS011;38606;52.986;6.980;2022-08-21T00:42:45;10.13;;;4.20;;
52708;SDS011;38606;52.986;6.980;2022-08-21T00:45:11;9.48;;;4.40;;
52708;SDS011;38606;52.986;6.980;2022-08-21T00:47:37;10.57;;;4.57;;
52708;SDS011;38606;52.986;6.980;2022-08-21T00:50:04;11.82;;;4.53;;
52708;SDS011;38606;52.986;6.980;2022-08-21T00:52:32;7.05;;;4.35;;
52708;SDS011;38606;52.986;6.980;2022-08-21T00:54:59;10.38;;;4.15;;
52708;SDS011;38606;52.986;6.980;2022-08-21T00:57:27;6.78;;;4.40;;
52708;SDS011;38606;52.986;6.980;2022-08-21T01:00:04;11.35;;;4.65;;
52708;SDS011;38606;52.986;6.980;2022-08-21T01:02:33;13.25;;;4.55;;
52708;SDS011;38606;52.986;6.980;2022-08-21T01:04:59;10.55;;;4.50;;
52708;SDS011;38606;52.986;6.980;2022-08-21T01:07:24;10.82;;;4.68;;
52708;SDS011;38606;52.986;6.980;2022-08-21T01:09:50;11.00;;;4.82;;
52708;SDS011;38606;52.986;6.980;2022-08-21T01:12:17;14.60;;;5.35;;
52708;SDS011;38606;52.986;6.980;2022-08-21T01:14:43;12.70;;;4.85;;
52708;SDS011;38606;52.986;6.980;2022-08-21T01:17:10;10.23;;;4.78;;
52708;SDS011;38606;52.986;6.980;2022-08-21T01:19:37;12.75;;;4.95;;
52708;SDS011;38606;52.986;6.980;2022-08-21T01:22:03;10.30;;;4.80;;
52708;SDS011;38606;52.986;6.980;2022-08-21T01:24:29;13.93;;;4.38;;
52708;SDS011;38606;52.986;6.980;2022-08-21T01:26:56;13.02;;;4.72;;
52708;SDS011;38606;52.986;6.980;2022-08-21T01:29:36;11.65;;;4.93;;
52708;SDS011;38606;52.986;6.980;2022-08-21T01:32:09;10.18;;;4.53;;
52708;SDS011;38606;52.986;6.980;2022-08-21T01:34:38;13.07;;;4.57;;
52708;SDS011;38606;52.986;6.980;2022-08-21T01:37:06;11.05;;;4.47;;
52708;SDS011;38606;52.986;6.980;2022-08-21T01:39:32;10.15;;;4.25;;
52708;SDS011;38606;52.986;6.980;2022-08-21T01:41:58;9.13;;;3.80;;
52708;SDS011;38606;52.986;6.980;2022-08-21T01:44:24;12.38;;;4.10;;
52708;SDS011;38606;52.986;6.980;2022-08-21T01:46:51;10.20;;;4.30;;
52708;SDS011;38606;52.986;6.980;2022-08-21T01:49:18;7.57;;;4.00;;
52708;SDS011;38606;52.986;6.980;2022-08-21T01:51:44;9.27;;;4.03;;
52708;SDS011;38606;52.986;6.980;2022-08-21T01:54:10;9.27;;;4.10;;
52708;SDS011;38606;52.986;6.980;2022-08-21T01:56:40;11.82;;;4.03;;
52708;SDS011;38606;52.986;6.980;2022-08-21T01:59:10;10.40;;;3.97;;
52708;SDS011;38606;52.986;6.980;2022-08-21T02:01:35;12.63;;;4.53;;
52708;SDS011;38606;52.986;6.980;2022-08-21T02:04:04;10.55;;;4.30;;
52708;SDS011;38606;52.986;6.980;2022-08-21T02:06:31;10.40;;;4.32;;
52708;SDS011;38606;52.986;6.980;2022-08-21T02:08:57;11.35;;;4.43;;
52708;SDS011;38606;52.986;6.980;2022-08-21T02:11:23;14.13;;;4.53;;
52708;SDS011;38606;52.986;6.980;2022-08-21T02:13:49;7.93;;;4.00;;
52708;SDS011;38606;52.986;6.980;2022-08-21T02:16:15;10.77;;;4.05;;
52708;SDS011;38606;52.986;6.980;2022-08-21T02:18:40;13.20;;;3.95;;
52708;SDS011;38606;52.986;6.980;2022-08-21T02:21:06;11.52;;;4.05;;
52708;SDS011;38606;52.986;6.980;2022-08-21T02:23:33;9.82;;;4.10;;
52708;SDS011;38606;52.986;6.980;2022-08-21T02:26:03;6.80;;;4.28;;
52708;SDS011;38606;52.986;6.980;2022-08-21T02:28:30;8.90;;;4.40;;
52708;SDS011;38606;52.986;6.980;2022-08-21T02:30:56;8.93;;;3.95;;
52708;SDS011;38606;52.986;6.980;2022-08-21T02:33:22;6.72;;;3.40;;
52708;SDS011;38606;52.986;6.980;2022-08-21T02:35:49;10.77;;;4.43;;
52708;SDS011;38606;52.986;6.980;2022-08-21T02:38:16;11.38;;;4.18;;
52708;SDS011;38606;52.986;6.980;2022-08-21T02:40:44;9.95;;;4.00;;
52708;SDS011;38606;52.986;6.980;2022-08-21T02:43:12;7.47;;;3.72;;
52708;SDS011;38606;52.986;6.980;2022-08-21T02:45:38;7.95;;;4.47;;
52708;SDS011;38606;52.986;6.980;2022-08-21T02:48:05;7.60;;;4.35;;
52708;SDS011;38606;52.986;6.980;2022-08-21T02:50:44;8.40;;;4.43;;
52708;SDS011;38606;52.986;6.980;2022-08-21T02:53:16;8.90;;;4.28;;
52708;SDS011;38606;52.986;6.980;2022-08-21T02:55:46;8.50;;;4.13;;
52708;SDS011;38606;52.986;6.980;2022-08-21T02:58:13;8.73;;;4.28;;
52708;SDS011;38606;52.986;6.980;2022-08-21T03:00:41;9.00;;;4.47;;
52708;SDS011;38606;52.986;6.980;2022-08-21T03:03:09;8.95;;;4.20;;
52708;SDS011;38606;52.986;6.980;2022-08-21T03:05:35;14.38;;;5.05;;
52708;SDS011;38606;52.986;6.980;2022-08-21T03:08:03;13.88;;;5.30;;
52708;SDS011;38606;52.986;6.980;2022-08-21T03:10:34;8.82;;;4.38;;
52708;SDS011;38606;52.986;6.980;2022-08-21T03:13:02;10.20;;;4.15;;
52708;SDS011;38606;52.986;6.980;2022-08-21T03:15:28;10.85;;;4.80;;
52708;SDS011;38606;52.986;6.980;2022-08-21T03:17:54;10.68;;;5.32;;
52708;SDS011;38606;52.986;6.980;2022-08-21T03:20:22;7.65;;;4.70;;
52708;SDS011;38606;52.986;6.980;2022-08-21T03:22:50;7.47;;;4.55;;
52708;SDS011;38606;52.986;6.980;2022-08-21T03:25:17;7.53;;;4.75;;
52708;SDS011;38606;52.986;6.980;2022-08-21T03:27:43;9.15;;;5.25;;
52708;SDS011;38606;52.986;6.980;2022-08-21T03:30:09;9.05;;;5.10;;
52708;SDS011;38606;52.986;6.980;2022-08-21T03:32:36;10.68;;;5.05;;
52708;SDS011;38606;52.986;6.980;2022-08-21T03:35:02;12.05;;;5.20;;
52708;SDS011;38606;52.986;6.980;2022-08-21T03:37:29;16.90;;;6.22;;
52708;SDS011;38606;52.986;6.980;2022-08-21T03:39:55;10.52;;;5.38;;
52708;SDS011;38606;52.986;6.980;2022-08-21T03:42:21;12.57;;;6.18;;
52708;SDS011;38606;52.986;6.980;2022-08-21T03:44:47;12.77;;;6.47;;
52708;SDS011;38606;52.986;6.980;2022-08-21T03:47:12;9.18;;;6.15;;
52708;SDS011;38606;52.986;6.980;2022-08-21T03:49:38;14.23;;;6.93;;
52708;SDS011;38606;52.986;6.980;2022-08-21T03:52:04;16.17;;;6.45;;
52708;SDS011;38606;52.986;6.980;2022-08-21T03:54:30;17.60;;;6.60;;
52708;SDS011;38606;52.986;6.980;2022-08-21T03:56:56;16.10;;;7.53;;
52708;SDS011;38606;52.986;6.980;2022-08-21T03:59:22;14.02;;;6.97;;
52708;SDS011;38606;52.986;6.980;2022-08-21T04:01:54;11.05;;;7.10;;
52708;SDS011;38606;52.986;6.980;2022-08-21T04:04:22;14.10;;;6.90;;
52708;SDS011;38606;52.986;6.980;2022-08-21T04:06:48;13.95;;;7.45;;
52708;SDS011;38606;52.986;6.980;2022-08-21T04:09:15;13.43;;;6.97;;
52708;SDS011;38606;52.986;6.980;2022-08-21T04:11:41;16.25;;;7.63;;
52708;SDS011;38606;52.986;6.980;2022-08-21T04:14:07;12.93;;;7.53;;
52708;SDS011;38606;52.986;6.980;2022-08-21T04:16:33;13.30;;;7.60;;
52708;SDS011;38606;52.986;6.980;2022-08-21T04:18:59;14.82;;;7.40;;
52708;SDS011;38606;52.986;6.980;2022-08-21T04:21:24;10.40;;;8.00;;
52708;SDS011;38606;52.986;6.980;2022-08-21T04:23:50;10.30;;;6.93;;
52708;SDS011;38606;52.986;6.980;2022-08-21T04:26:18;17.30;;;8.00;;
52708;SDS011;38606;52.986;6.980;2022-08-21T04:28:44;14.82;;;8.55;;
52708;SDS011;38606;52.986;6.980;2022-08-21T04:31:10;15.00;;;8.75;;
52708;SDS011;38606;52.986;6.980;2022-08-21T04:33:36;17.02;;;8.57;;
52708;SDS011;38606;52.986;6.980;2022-08-21T04:36:01;14.30;;;8.05;;
52708;SDS011;38606;52.986;6.980;2022-08-21T04:38:27;15.55;;;8.63;;
52708;SDS011;38606;52.986;6.980;2022-08-21T04:40:53;14.88;;;8.45;;
52708;SDS011;38606;52.986;6.980;2022-08-21T04:43:19;14.40;;;8.38;;
52708;SDS011;38606;52.986;6.980;2022-08-21T04:45:48;16.92;;;9.27;;
52708;SDS011;38606;52.986;6.980;2022-08-21T04:48:16;18.35;;;8.75;;
52708;SDS011;38606;52.986;6.980;2022-08-21T04:50:57;14.43;;;9.43;;
52708;SDS011;38606;52.986;6.980;2022-08-21T04:56:20;17.10;;;9.68;;
52708;SDS011;38606;52.986;6.980;2022-08-21T04:58:49;16.73;;;9.70;;
52708;SDS011;38606;52.986;6.980;2022-08-21T05:01:19;18.70;;;10.57;;
52708;SDS011;38606;52.986;6.980;2022-08-21T05:03:47;18.85;;;10.32;;
52708;SDS011;38606;52.986;6.980;2022-08-21T05:06:16;15.85;;;9.93;;
52708;SDS011;38606;52.986;6.980;2022-08-21T05:08:42;13.57;;;9.90;;
52708;SDS011;38606;52.986;6.980;2022-08-21T05:11:11;17.50;;;9.65;;
52708;SDS011;38606;52.986;6.980;2022-08-21T05:13:38;18.30;;;9.80;;
52708;SDS011;38606;52.986;6.980;2022-08-21T05:16:05;16.17;;;10.40;;
52708;SDS011;38606;52.986;6.980;2022-08-21T05:18:31;19.02;;;10.05;;
52708;SDS011;38606;52.986;6.980;2022-08-21T05:20:57;13.38;;;9.73;;
52708;SDS011;38606;52.986;6.980;2022-08-21T05:23:22;20.08;;;11.45;;
52708;SDS011;38606;52.986;6.980;2022-08-21T05:25:48;17.77;;;10.00;;
52708;SDS011;38606;52.986;6.980;2022-08-21T05:28:14;13.73;;;8.93;;
52708;SDS011;38606;52.986;6.980;2022-08-21T05:30:40;14.57;;;9.60;;
52708;SDS011;38606;52.986;6.980;2022-08-21T05:33:06;16.73;;;9.98;;
52708;SDS011;38606;52.986;6.980;2022-08-21T05:35:32;12.98;;;9.10;;
52708;SDS011;38606;52.986;6.980;2022-08-21T05:37:58;16.27;;;9.85;;
52708;SDS011;38606;52.986;6.980;2022-08-21T05:40:25;16.60;;;9.00;;
52708;SDS011;38606;52.986;6.980;2022-08-21T05:42:52;19.38;;;9.38;;
52708;SDS011;38606;52.986;6.980;2022-08-21T05:45:19;15.07;;;9.20;;
52708;SDS011;38606;52.986;6.980;2022-08-21T05:47:46;11.73;;;8.23;;
52708;SDS011;38606;52.986;6.980;2022-08-21T05:50:11;15.13;;;8.35;;
52708;SDS011;38606;52.986;6.980;2022-08-21T05:52:37;12.88;;;7.95;;
52708;SDS011;38606;52.986;6.980;2022-08-21T05:55:03;12.93;;;8.20;;
52708;SDS011;38606;52.986;6.980;2022-08-21T05:57:29;13.07;;;7.95;;
52708;SDS011;38606;52.986;6.980;2022-08-21T05:59:55;12.48;;;7.90;;
52708;SDS011;38606;52.986;6.980;2022-08-21T06:02:21;17.10;;;7.25;;
52708;SDS011;38606;52.986;6.980;2022-08-21T06:04:47;11.45;;;7.53;;
52708;SDS011;38606;52.986;6.980;2022-08-21T06:07:13;15.15;;;7.65;;
52708;SDS011;38606;52.986;6.980;2022-08-21T06:09:39;10.85;;;7.35;;
52708;SDS011;38606;52.986;6.980;2022-08-21T06:12:06;12.00;;;7.07;;
52708;SDS011;38606;52.986;6.980;2022-08-21T06:14:34;9.40;;;6.88;;
52708;SDS011;38606;52.986;6.980;2022-08-21T06:17:07;13.90;;;7.10;;
52708;SDS011;38606;52.986;6.980;2022-08-21T06:19:35;10.52;;;6.57;;
52708;SDS011;38606;52.986;6.980;2022-08-21T06:22:01;13.50;;;6.82;;
52708;SDS011;38606;52.986;6.980;2022-08-21T06:24:28;11.40;;;5.88;;
52708;SDS011;38606;52.986;6.980;2022-08-21T06:26:54;10.57;;;5.60;;
52708;SDS011;38606;52.986;6.980;2022-08-21T06:29:19;12.65;;;5.60;;
52708;SDS011;38606;52.986;6.980;2022-08-21T06:31:46;9.93;;;5.43;;
52708;SDS011;38606;52.986;6.980;2022-08-21T06:34:13;12.57;;;5.60;;
52708;SDS011;38606;52.986;6.980;2022-08-21T06:36:39;10.85;;;5.45;;
52708;SDS011;38606;52.986;6.980;2022-08-21T06:39:05;9.00;;;4.90;;
52708;SDS011;38606;52.986;6.980;2022-08-21T06:41:31;11.93;;;5.35;;
52708;SDS011;38606;52.986;6.980;2022-08-21T06:43:57;9.40;;;4.80;;
52708;SDS011;38606;52.986;6.980;2022-08-21T06:46:24;9.93;;;4.90;;
52708;SDS011;38606;52.986;6.980;2022-08-21T06:48:51;10.85;;;5.30;;
52708;SDS011;38606;52.986;6.980;2022-08-21T06:51:17;12.45;;;5.15;;
52708;SDS011;38606;52.986;6.980;2022-08-21T06:53:44;11.10;;;4.80;;
52708;SDS011;38606;52.986;6.980;2022-08-21T06:56:09;9.23;;;4.85;;
52708;SDS011;38606;52.986;6.980;2022-08-21T06:58:35;11.13;;;4.68;;
52708;SDS011;38606;52.986;6.980;2022-08-21T07:01:02;15.00;;;5.05;;
52708;SDS011;38606;52.986;6.980;2022-08-21T07:03:33;10.43;;;4.78;;
52708;SDS011;38606;52.986;6.980;2022-08-21T07:06:01;9.88;;;4.63;;
52708;SDS011;38606;52.986;6.980;2022-08-21T07:08:27;11.10;;;4.43;;
52708;SDS011;38606;52.986;6.980;2022-08-21T07:10:54;10.63;;;4.70;;
52708;SDS011;38606;52.986;6.980;2022-08-21T07:13:22;10.60;;;4.50;;
52708;SDS011;38606;52.986;6.980;2022-08-21T07:15:47;12.45;;;4.10;;
52708;SDS011;38606;52.986;6.980;2022-08-21T07:18:13;9.98;;;4.10;;
52708;SDS011;38606;52.986;6.980;2022-08-21T07:20:40;13.82;;;4.18;;
52708;SDS011;38606;52.986;6.980;2022-08-21T07:23:09;10.52;;;3.90;;
52708;SDS011;38606;52.986;6.980;2022-08-21T07:25:57;9.88;;;4.50;;
52708;SDS011;38606;52.986;6.980;2022-08-21T07:28:24;10.60;;;3.65;;
52708;SDS011;38606;52.986;6.980;2022-08-21T07:30:50;14.40;;;3.78;;
52708;SDS011;38606;52.986;6.980;2022-08-21T07:33:18;22.73;;;4.95;;
52708;SDS011;38606;52.986;6.980;2022-08-21T07:35:43;10.25;;;3.55;;
52708;SDS011;38606;52.986;6.980;2022-08-21T07:38:09;8.88;;;3.22;;
52708;SDS011;38606;52.986;6.980;2022-08-21T07:40:35;7.78;;;3.58;;
52708;SDS011;38606;52.986;6.980;2022-08-21T07:43:01;11.93;;;3.70;;
52708;SDS011;38606;52.986;6.980;2022-08-21T07:45:26;10.50;;;3.17;;
52708;SDS011;38606;52.986;6.980;2022-08-21T07:47:52;12.00;;;3.00;;
52708;SDS011;38606;52.986;6.980;2022-08-21T07:50:18;11.27;;;3.38;;
52708;SDS011;38606;52.986;6.980;2022-08-21T07:52:44;11.48;;;3.50;;
52708;SDS011;38606;52.986;6.980;2022-08-21T07:55:11;14.23;;;2.83;;
52708;SDS011;38606;52.986;6.980;2022-08-21T07:57:38;9.82;;;3.00;;
52708;SDS011;38606;52.986;6.980;2022-08-21T08:00:05;12.07;;;2.80;;
52708;SDS011;38606;52.986;6.980;2022-08-21T08:02:34;8.60;;;2.40;;
52708;SDS011;38606;52.986;6.980;2022-08-21T08:05:03;9.07;;;2.15;;
52708;SDS011;38606;52.986;6.980;2022-08-21T08:07:31;13.18;;;2.20;;
52708;SDS011;38606;52.986;6.980;2022-08-21T08:09:57;10.07;;;2.38;;
52708;SDS011;38606;52.986;6.980;2022-08-21T08:12:23;13.38;;;2.15;;
52708;SDS011;38606;52.986;6.980;2022-08-21T08:14:55;9.02;;;2.50;;
52708;SDS011;38606;52.986;6.980;2022-08-21T08:17:22;8.30;;;2.47;;
52708;SDS011;38606;52.986;6.980;2022-08-21T08:19:48;8.45;;;2.33;;
52708;SDS011;38606;52.986;6.980;2022-08-21T08:22:19;8.93;;;2.33;;
52708;SDS011;38606;52.986;6.980;2022-08-21T08:24:48;9.63;;;2.55;;
52708;SDS011;38606;52.986;6.980;2022-08-21T08:27:15;10.43;;;2.40;;
52708;SDS011;38606;52.986;6.980;2022-08-21T08:29:41;10.77;;;2.20;;
52708;SDS011;38606;52.986;6.980;2022-08-21T08:32:07;7.05;;;1.88;;
52708;SDS011;38606;52.986;6.980;2022-08-21T08:34:33;9.43;;;2.10;;
52708;SDS011;38606;52.986;6.980;2022-08-21T08:37:00;7.57;;;1.80;;
52708;SDS011;38606;52.986;6.980;2022-08-21T08:39:26;11.90;;;2.03;;
52708;SDS011;38606;52.986;6.980;2022-08-21T08:42:00;6.60;;;1.70;;
52708;SDS011;38606;52.986;6.980;2022-08-21T08:44:29;7.28;;;1.60;;
52708;SDS011;38606;52.986;6.980;2022-08-21T08:46:55;7.78;;;1.90;;
52708;SDS011;38606;52.986;6.980;2022-08-21T08:51:51;9.60;;;2.03;;
52708;SDS011;38606;52.986;6.980;2022-08-21T08:54:29;8.45;;;2.47;;
52708;SDS011;38606;52.986;6.980;2022-08-21T08:57:00;9.32;;;2.13;;
52708;SDS011;38606;52.986;6.980;2022-08-21T08:59:35;6.65;;;2.13;;
52708;SDS011;38606;52.986;6.980;2022-08-21T09:02:04;8.95;;;1.90;;
52708;SDS011;38606;52.986;6.980;2022-08-21T09:04:30;7.63;;;2.08;;
52708;SDS011;38606;52.986;6.980;2022-08-21T09:12:17;3.65;;;1.50;;
52708;SDS011;38606;52.986;6.980;2022-08-21T09:15:22;13.63;;;2.60;;
52708;SDS011;38606;52.986;6.980;2022-08-21T09:29:35;8.00;;;1.70;;
52708;SDS011;38606;52.986;6.980;2022-08-21T09:32:04;5.88;;;2.25;;
52708;SDS011;38606;52.986;6.980;2022-08-21T09:34:41;6.68;;;1.95;;
52708;SDS011;38606;52.986;6.980;2022-08-21T09:37:15;10.63;;;2.30;;
52708;SDS011;38606;52.986;6.980;2022-08-21T09:39:42;9.10;;;1.80;;
52708;SDS011;38606;52.986;6.980;2022-08-21T09:42:09;8.63;;;1.85;;
52708;SDS011;38606;52.986;6.980;2022-08-21T09:44:36;11.65;;;1.80;;
52708;SDS011;38606;52.986;6.980;2022-08-21T09:47:09;6.07;;;1.85;;
52708;SDS011;38606;52.986;6.980;2022-08-21T09:49:41;5.30;;;1.70;;
52708;SDS011;38606;52.986;6.980;2022-08-21T09:52:17;8.52;;;2.38;;
52708;SDS011;38606;52.986;6.980;2022-08-21T09:54:48;8.30;;;1.85;;
52708;SDS011;38606;52.986;6.980;2022-08-21T09:57:23;10.55;;;2.00;;
52708;SDS011;38606;52.986;6.980;2022-08-21T10:02:50;5.95;;;2.05;;
52708;SDS011;38606;52.986;6.980;2022-08-21T10:05:17;7.75;;;1.83;;
52708;SDS011;38606;52.986;6.980;2022-08-21T10:07:48;5.93;;;1.80;;
52708;SDS011;38606;52.986;6.980;2022-08-21T10:10:19;8.35;;;2.08;;
52708;SDS011;38606;52.986;6.980;2022-08-21T10:18:35;11.43;;;2.38;;
52708;SDS011;38606;52.986;6.980;2022-08-21T10:21:19;8.75;;;2.03;;
52708;SDS011;38606;52.986;6.980;2022-08-21T10:23:51;6.70;;;2.00;;
52708;SDS011;38606;52.986;6.980;2022-08-21T10:29:22;5.68;;;1.60;;
52708;SDS011;38606;52.986;6.980;2022-08-21T10:32:02;7.65;;;1.80;;
52708;SDS011;38606;52.986;6.980;2022-08-21T10:42:31;8.70;;;2.30;;
52708;SDS011;38606;52.986;6.980;2022-08-21T10:48:03;5.57;;;1.67;;
52708;SDS011;38606;52.986;6.980;2022-08-21T10:51:32;12.13;;;2.20;;
52708;SDS011;38606;52.986;6.980;2022-08-21T10:53:37;6.85;;;1.90;;
52708;SDS011;38606;52.986;6.980;2022-08-21T10:56:16;7.05;;;2.13;;
52708;SDS011;38606;52.986;6.980;2022-08-21T10:58:46;7.55;;;1.98;;
52708;SDS011;38606;52.986;6.980;2022-08-21T11:01:31;6.13;;;1.50;;
52708;SDS011;38606;52.986;6.980;2022-08-21T11:04:10;7.88;;;1.45;;
52708;SDS011;38606;52.986;6.980;2022-08-21T11:07:06;8.43;;;2.63;;
52708;SDS011;38606;52.986;6.980;2022-08-21T11:09:36;5.97;;;1.80;;
52708;SDS011;38606;52.986;6.980;2022-08-21T11:12:17;9.27;;;1.50;;
52708;SDS011;38606;52.986;6.980;2022-08-21T11:15:05;8.88;;;1.70;;
52708;SDS011;38606;52.986;6.980;2022-08-21T11:17:34;6.30;;;1.38;;
52708;SDS011;38606;52.986;6.980;2022-08-21T11:20:08;6.20;;;1.13;;
52708;SDS011;38606;52.986;6.980;2022-08-21T11:22:43;4.85;;;1.52;;
52708;SDS011;38606;52.986;6.980;2022-08-21T11:25:35;4.13;;;1.30;;
52708;SDS011;38606;52.986;6.980;2022-08-21T11:28:19;4.00;;;1.45;;
52708;SDS011;38606;52.986;6.980;2022-08-21T11:33:40;5.75;;;1.48;;
52708;SDS011;38606;52.986;6.980;2022-08-21T11:36:19;7.18;;;1.20;;
52708;SDS011;38606;52.986;6.980;2022-08-21T11:39:11;4.63;;;1.27;;
52708;SDS011;38606;52.986;6.980;2022-08-21T11:52:36;5.43;;;1.42;;
52708;SDS011;38606;52.986;6.980;2022-08-21T12:03:26;3.92;;;1.20;;
52708;SDS011;38606;52.986;6.980;2022-08-21T12:05:58;4.35;;;1.20;;
52708;SDS011;38606;52.986;6.980;2022-08-21T12:11:10;6.13;;;1.55;;
52708;SDS011;38606;52.986;6.980;2022-08-21T12:16:34;5.78;;;1.25;;
52708;SDS011;38606;52.986;6.980;2022-08-21T12:19:10;6.93;;;1.65;;
52708;SDS011;38606;52.986;6.980;2022-08-21T12:30:05;4.75;;;1.20;;
52708;SDS011;38606;52.986;6.980;2022-08-21T12:32:45;4.22;;;1.25;;
52708;SDS011;38606;52.986;6.980;2022-08-21T12:35:20;5.07;;;1.30;;
52708;SDS011;38606;52.986;6.980;2022-08-21T12:40:36;4.25;;;1.33;;
52708;SDS011;38606;52.986;6.980;2022-08-21T12:43:05;4.60;;;1.25;;
52708;SDS011;38606;52.986;6.980;2022-08-21T12:45:42;6.60;;;1.58;;
52708;SDS011;38606;52.986;6.980;2022-08-21T12:48:13;8.07;;;1.90;;
52708;SDS011;38606;52.986;6.980;2022-08-21T12:50:52;5.85;;;1.30;;
52708;SDS011;38606;52.986;6.980;2022-08-21T12:53:57;5.35;;;1.23;;
52708;SDS011;38606;52.986;6.980;2022-08-21T12:56:24;7.50;;;1.23;;
52708;SDS011;38606;52.986;6.980;2022-08-21T12:59:01;3.80;;;1.13;;
52708;SDS011;38606;52.986;6.980;2022-08-21T13:01:34;7.03;;;1.92;;
52708;SDS011;38606;52.986;6.980;2022-08-21T13:04:14;6.60;;;1.40;;
52708;SDS011;38606;52.986;6.980;2022-08-21T13:06:46;4.88;;;1.33;;
52708;SDS011;38606;52.986;6.980;2022-08-21T13:09:16;6.68;;;1.30;;
52708;SDS011;38606;52.986;6.980;2022-08-21T13:11:46;4.03;;;1.30;;
52708;SDS011;38606;52.986;6.980;2022-08-21T13:16:57;5.53;;;1.60;;
52708;SDS011;38606;52.986;6.980;2022-08-21T13:19:24;5.90;;;1.77;;
52708;SDS011;38606;52.986;6.980;2022-08-21T13:21:51;3.55;;;1.38;;
52708;SDS011;38606;52.986;6.980;2022-08-21T13:26:46;5.90;;;1.42;;
52708;SDS011;38606;52.986;6.980;2022-08-21T13:29:15;5.32;;;1.33;;
52708;SDS011;38606;52.986;6.980;2022-08-21T13:31:47;6.43;;;1.60;;
52708;SDS011;38606;52.986;6.980;2022-08-21T13:34:17;4.45;;;1.65;;
52708;SDS011;38606;52.986;6.980;2022-08-21T13:36:45;7.70;;;1.48;;
52708;SDS011;38606;52.986;6.980;2022-08-21T13:39:12;6.68;;;1.40;;
52708;SDS011;38606;52.986;6.980;2022-08-21T13:41:43;6.53;;;1.85;;
52708;SDS011;38606;52.986;6.980;2022-08-21T13:46:42;4.68;;;1.35;;
52708;SDS011;38606;52.986;6.980;2022-08-21T13:49:09;7.63;;;1.80;;
52708;SDS011;38606;52.986;6.980;2022-08-21T13:51:38;7.30;;;1.80;;
52708;SDS011;38606;52.986;6.980;2022-08-21T13:54:15;4.93;;;1.73;;
52708;SDS011;38606;52.986;6.980;2022-08-21T13:56:47;8.25;;;1.85;;
52708;SDS011;38606;52.986;6.980;2022-08-21T13:59:14;8.00;;;2.00;;
52708;SDS011;38606;52.986;6.980;2022-08-21T14:01:51;7.10;;;1.98;;
52708;SDS011;38606;52.986;6.980;2022-08-21T14:04:50;6.35;;;1.65;;
52708;SDS011;38606;52.986;6.980;2022-08-21T14:07:20;10.77;;;2.45;;
52708;SDS011;38606;52.986;6.980;2022-08-21T14:09:50;8.95;;;2.00;;
52708;SDS011;38606;52.986;6.980;2022-08-21T14:12:28;6.78;;;2.13;;
52708;SDS011;38606;52.986;6.980;2022-08-21T14:14:58;8.25;;;2.00;;
52708;SDS011;38606;52.986;6.980;2022-08-21T14:17:33;6.93;;;2.00;;
52708;SDS011;38606;52.986;6.980;2022-08-21T14:20:03;7.15;;;2.08;;
52708;SDS011;38606;52.986;6.980;2022-08-21T14:25:00;3.90;;;1.52;;
52708;SDS011;38606;52.986;6.980;2022-08-21T14:27:31;9.68;;;2.20;;
52708;SDS011;38606;52.986;6.980;2022-08-21T14:30:00;4.80;;;1.55;;
52708;SDS011;38606;52.986;6.980;2022-08-21T14:32:36;6.22;;;1.70;;
52708;SDS011;38606;52.986;6.980;2022-08-21T14:35:03;8.43;;;2.25;;
52708;SDS011;38606;52.986;6.980;2022-08-21T14:37:29;8.20;;;1.90;;
52708;SDS011;38606;52.986;6.980;2022-08-21T14:39:55;6.47;;;1.80;;
52708;SDS011;38606;52.986;6.980;2022-08-21T14:42:21;8.02;;;1.90;;
52708;SDS011;38606;52.986;6.980;2022-08-21T14:44:46;6.22;;;1.70;;
52708;SDS011;38606;52.986;6.980;2022-08-21T14:47:12;5.68;;;1.80;;
52708;SDS011;38606;52.986;6.980;2022-08-21T14:49:38;7.43;;;1.88;;
52708;SDS011;38606;52.986;6.980;2022-08-21T14:52:04;7.15;;;1.90;;
52708;SDS011;38606;52.986;6.980;2022-08-21T14:54:31;9.00;;;1.90;;
52708;SDS011;38606;52.986;6.980;2022-08-21T14:56:58;8.60;;;1.90;;
52708;SDS011;38606;52.986;6.980;2022-08-21T14:59:27;6.28;;;1.83;;
52708;SDS011;38606;52.986;6.980;2022-08-21T15:01:54;6.72;;;1.70;;
52708;SDS011;38606;52.986;6.980;2022-08-21T15:04:21;6.68;;;1.73;;
52708;SDS011;38606;52.986;6.980;2022-08-21T15:06:46;7.47;;;2.00;;
52708;SDS011;38606;52.986;6.980;2022-08-21T15:09:12;8.02;;;1.88;;
52708;SDS011;38606;52.986;6.980;2022-08-21T15:11:38;5.05;;;1.63;;
52708;SDS011;38606;52.986;6.980;2022-08-21T15:14:05;7.70;;;2.30;;
52708;SDS011;38606;52.986;6.980;2022-08-21T15:16:35;7.90;;;2.22;;
52708;SDS011;38606;52.986;6.980;2022-08-21T15:19:01;7.60;;;1.92;;
52708;SDS011;38606;52.986;6.980;2022-08-21T15:21:27;6.28;;;1.70;;
52708;SDS011;38606;52.986;6.980;2022-08-21T15:23:52;8.20;;;1.83;;
52708;SDS011;38606;52.986;6.980;2022-08-21T15:26:19;5.40;;;1.77;;
52708;SDS011;38606;52.986;6.980;2022-08-21T15:28:47;5.60;;;1.60;;
52708;SDS011;38606;52.986;6.980;2022-08-21T15:31:13;6.20;;;2.20;;
52708;SDS011;38606;52.986;6.980;2022-08-21T15:33:39;8.07;;;2.17;;
52708;SDS011;38606;52.986;6.980;2022-08-21T15:36:04;10.02;;;1.70;;
52708;SDS011;38606;52.986;6.980;2022-08-21T15:38:30;9.13;;;2.03;;
52708;SDS011;38606;52.986;6.980;2022-08-21T15:40:56;6.68;;;2.08;;
52708;SDS011;38606;52.986;6.980;2022-08-21T15:43:29;6.93;;;2.08;;
52708;SDS011;38606;52.986;6.980;2022-08-21T15:45:58;5.47;;;1.63;;
52708;SDS011;38606;52.986;6.980;2022-08-21T15:48:25;7.78;;;1.70;;
52708;SDS011;38606;52.986;6.980;2022-08-21T15:50:51;5.45;;;1.60;;
52708;SDS011;38606;52.986;6.980;2022-08-21T15:53:17;6.03;;;1.40;;
52708;SDS011;38606;52.986;6.980;2022-08-21T15:55:43;4.75;;;1.55;;
52708;SDS011;38606;52.986;6.980;2022-08-21T15:58:11;4.57;;;1.77;;
52708;SDS011;38606;52.986;6.980;2022-08-21T16:00:41;5.30;;;1.48;;
52708;SDS011;38606;52.986;6.980;2022-08-21T16:03:09;6.07;;;1.52;;
52708;SDS011;38606;52.986;6.980;2022-08-21T16:05:39;4.85;;;1.65;;
52708;SDS011;38606;52.986;6.980;2022-08-21T16:08:05;5.25;;;1.50;;
52708;SDS011;38606;52.986;6.980;2022-08-21T16:10:31;7.95;;;2.10;;
52708;SDS011;38606;52.986;6.980;2022-08-21T16:13:01;5.93;;;1.90;;
52708;SDS011;38606;52.986;6.980;2022-08-21T16:15:29;6.90;;;1.98;;
52708;SDS011;38606;52.986;6.980;2022-08-21T16:17:55;6.70;;;1.83;;
52708;SDS011;38606;52.986;6.980;2022-08-21T16:20:22;4.82;;;1.50;;
52708;SDS011;38606;52.986;6.980;2022-08-21T16:22:51;7.68;;;1.60;;
52708;SDS011;38606;52.986;6.980;2022-08-21T16:25:18;7.57;;;1.85;;